createdAt,value
2024-01-24T00:00:47.240Z,96734.44
2024-01-24T00:03:33.455Z,96733.31
2024-01-24T00:06:19.602Z,96726.84
2024-01-24T00:09:05.989Z,96750.56
2024-01-24T00:11:59.105Z,96745.59
2024-01-24T00:14:45.302Z,96760.72
2024-01-24T00:17:31.504Z,96769.34
2024-01-24T00:20:17.624Z,96767.72
2024-01-24T00:23:03.533Z,96772.53
2024-01-24T00:25:50.764Z,96772.03
2024-01-24T00:28:36.849Z,96776.31
2024-01-24T00:31:22.720Z,96774.19
2024-01-24T00:34:09.457Z,96776.31
2024-01-24T00:36:56.379Z,96774.19
2024-01-24T00:39:42.920Z,96779.06
2024-01-24T00:42:29.172Z,96769.94
2024-01-24T00:45:15.244Z,96786.88
2024-01-24T00:48:11.977Z,96769.34
2024-01-24T00:50:58.138Z,96772.38
2024-01-24T00:53:45.491Z,96766.78
2024-01-24T00:56:31.305Z,96770.00
2024-01-24T00:59:19.249Z,96774.31
2024-01-24T01:02:05.126Z,96765.38
2024-01-24T01:04:51.023Z,96765.06
2024-01-24T01:07:36.932Z,96760.50
2024-01-24T01:10:23.156Z,96761.63
2024-01-24T01:13:09.000Z,96760.81
2024-01-24T01:15:57.008Z,96752.69
2024-01-24T01:18:44.542Z,96763.50
2024-01-24T01:21:30.678Z,96756.84
2024-01-24T01:24:19.136Z,96751.88
2024-01-24T01:27:05.116Z,96756.97
2024-01-24T01:29:52.944Z,96741.91
2024-01-24T01:32:40.248Z,96747.28
2024-01-24T01:35:27.891Z,96748.66
2024-01-24T01:38:17.101Z,96745.09
2024-01-24T01:41:05.573Z,96739.22
2024-01-24T01:43:51.786Z,96740.63
2024-01-24T01:46:40.893Z,96736.06
2024-01-24T01:49:26.910Z,96719.34
2024-01-24T01:52:46.641Z,96751.03
2024-01-24T01:55:32.965Z,96736.63
2024-01-24T01:58:25.953Z,96737.19
2024-01-24T02:01:12.340Z,96733.44
2024-01-24T02:04:04.700Z,96736.63
2024-01-24T02:06:52.552Z,96736.88
2024-01-24T02:09:38.731Z,96727.50
2024-01-24T02:12:26.888Z,96733.44
2024-01-24T02:15:13.040Z,96714.56
2024-01-24T02:17:59.001Z,96715.06
2024-01-24T02:20:45.656Z,96716.19
2024-01-24T02:23:31.747Z,96708.38
2024-01-24T02:26:18.052Z,96700.31
2024-01-24T02:29:04.217Z,96711.81
2024-01-24T02:31:52.451Z,96692.97
2024-01-24T02:34:38.576Z,96706.88
2024-01-24T02:37:24.468Z,96703.81
2024-01-24T02:40:17.228Z,96713.16
2024-01-24T02:43:03.574Z,96721.03
2024-01-24T02:45:50.367Z,96714.78
2024-01-24T02:48:36.837Z,96718.53
2024-01-24T02:51:27.063Z,96723.34
2024-01-24T02:54:13.034Z,96711.03
2024-01-24T02:56:59.974Z,96726.09
2024-01-24T02:59:45.864Z,96726.09
2024-01-24T03:02:32.539Z,96720.97
2024-01-24T03:05:18.722Z,96729.25
2024-01-24T03:08:06.354Z,96717.91
2024-01-24T03:10:52.106Z,96726.53
2024-01-24T03:13:37.989Z,96727.03
2024-01-24T03:16:24.185Z,96728.91
2024-01-24T03:19:10.460Z,96729.16
2024-01-24T03:21:56.466Z,96721.84
2024-01-24T03:24:42.785Z,96730.72
2024-01-24T03:27:28.633Z,96717.81
2024-01-24T03:30:14.993Z,96729.13
2024-01-24T03:33:02.216Z,96736.34
2024-01-24T03:35:48.834Z,96721.47
2024-01-24T03:38:35.581Z,96728.56
2024-01-24T03:41:23.759Z,96724.16
2024-01-24T03:44:10.161Z,96733.09
2024-01-24T03:46:56.463Z,96723.19
2024-01-24T03:49:42.601Z,96722.66
2024-01-24T03:52:28.635Z,96730.47
2024-01-24T03:55:14.466Z,96719.97
2024-01-24T03:58:00.530Z,96714.00
2024-01-24T04:00:46.678Z,96722.94
2024-01-24T04:03:33.824Z,96715.06
2024-01-24T04:06:19.761Z,96723.66
2024-01-24T04:09:06.659Z,96727.97
2024-01-24T04:11:52.310Z,96726.84
2024-01-24T04:14:38.261Z,96732.22
2024-01-24T04:17:24.401Z,96727.91
2024-01-24T04:20:10.794Z,96723.56
2024-01-24T04:22:56.636Z,96754.47
2024-01-24T04:25:42.672Z,96753.56
2024-01-24T04:28:28.885Z,96757.97
2024-01-24T04:31:15.290Z,96762.75
2024-01-24T04:34:01.625Z,96765.38
2024-01-24T04:36:47.833Z,96764.56
2024-01-24T04:39:33.902Z,96765.44
2024-01-24T04:42:20.490Z,96771.88
2024-01-24T04:45:06.724Z,96757.31
2024-01-24T04:47:52.989Z,96752.06
2024-01-24T04:50:39.412Z,96766.88
2024-01-24T04:53:25.837Z,96774.44
2024-01-24T04:56:11.998Z,96784.13
2024-01-24T04:58:58.179Z,96779.22
2024-01-24T05:01:44.664Z,96776.97
2024-01-24T05:04:30.498Z,96786.16
2024-01-24T05:07:16.693Z,96773.16
2024-01-24T05:10:04.733Z,96782.84
2024-01-24T05:12:50.628Z,96763.34
2024-01-24T05:15:36.625Z,96782.22
2024-01-24T05:18:23.886Z,96776.28
2024-01-24T05:21:09.783Z,96792.63
2024-01-24T05:23:56.811Z,96797.66
2024-01-24T05:26:44.880Z,96796.53
2024-01-24T05:29:33.262Z,96781.59
2024-01-24T05:32:19.347Z,96787.78
2024-01-24T05:35:05.797Z,96801.75
2024-01-24T05:37:51.937Z,96786.28
2024-01-24T05:40:37.901Z,96793.63
2024-01-24T05:43:24.013Z,96801.09
2024-01-24T05:46:10.203Z,96794.59
2024-01-24T05:48:57.086Z,96796.72
2024-01-24T05:51:43.770Z,96780.72
2024-01-24T05:54:32.205Z,96781.03
2024-01-24T05:57:18.287Z,96780.53
2024-01-24T06:00:04.616Z,96774.59
2024-01-24T06:02:50.670Z,96778.84
2024-01-24T06:05:36.584Z,96788.41
2024-01-24T06:08:24.672Z,96777.34
2024-01-24T06:11:11.308Z,96777.53
2024-01-24T06:14:01.109Z,96763.38
2024-01-24T06:16:47.071Z,96769.56
2024-01-24T06:19:33.251Z,96762.75
2024-01-24T06:22:19.281Z,96768.91
2024-01-24T06:25:09.195Z,96766.13
2024-01-24T06:28:01.555Z,96780.81
2024-01-24T06:30:48.626Z,96773.28
2024-01-24T06:33:37.822Z,96777.59
2024-01-24T06:36:24.173Z,96783.50
2024-01-24T06:39:11.215Z,96778.41
2024-01-24T06:41:57.456Z,96788.88
2024-01-24T06:44:45.129Z,96779.69
2024-01-24T06:47:31.637Z,96779.78
2024-01-24T06:50:19.015Z,96785.13
2024-01-24T06:53:07.146Z,96790.00
2024-01-24T06:55:53.167Z,96791.66
2024-01-24T06:58:39.310Z,96778.81
2024-01-24T07:01:25.484Z,96783.59
2024-01-24T07:04:11.965Z,96782.56
2024-01-24T07:06:58.334Z,96789.53
2024-01-24T07:09:44.402Z,96793.75
2024-01-24T07:12:31.402Z,96797.00
2024-01-24T07:15:17.848Z,96808.19
2024-01-24T07:18:04.488Z,96798.75
2024-01-24T07:20:50.711Z,96809.81
2024-01-24T07:23:36.715Z,96807.38
2024-01-24T07:26:22.738Z,96806.09
2024-01-24T07:29:08.645Z,96798.75
2024-01-24T07:31:55.694Z,96804.81
2024-01-24T07:34:41.535Z,96797.47
2024-01-24T07:37:32.896Z,96785.63
2024-01-24T07:40:18.902Z,96798.16
2024-01-24T07:43:05.244Z,96796.53
2024-01-24T07:45:52.116Z,96800.91
2024-01-24T07:48:38.152Z,96805.78
2024-01-24T07:51:24.334Z,96811.16
2024-01-24T07:54:10.624Z,96811.16
2024-01-24T07:56:56.341Z,96814.41
2024-01-24T07:59:42.473Z,96810.69
2024-01-24T08:02:29.704Z,96823.91
2024-01-24T08:05:16.783Z,96826.94
2024-01-24T08:08:03.099Z,96830.97
2024-01-24T08:10:49.556Z,96836.69
2024-01-24T08:13:35.434Z,96835.06
2024-01-24T08:16:24.234Z,96845.28
2024-01-24T08:19:12.559Z,96837.09
2024-01-24T08:21:59.455Z,96843.13
2024-01-24T08:24:46.938Z,96828.38
2024-01-24T08:27:33.078Z,96828.25
2024-01-24T08:30:21.661Z,96820.53
2024-01-24T08:33:08.244Z,96817.34
2024-01-24T08:35:54.532Z,96824.19
2024-01-24T08:38:46.457Z,96821.22
2024-01-24T08:41:33.089Z,96821.88
2024-01-24T08:44:19.611Z,96838.13
2024-01-24T08:47:07.307Z,96812.59
2024-01-24T08:49:55.436Z,96805.44
2024-01-24T08:52:41.407Z,96799.56
2024-01-24T08:55:28.911Z,96798.25
2024-01-24T08:58:15.416Z,96805.06
2024-01-24T09:01:07.632Z,96816.63
2024-01-24T09:03:54.730Z,96822.69
2024-01-24T09:06:41.079Z,96824.06
2024-01-24T09:09:28.174Z,96801.66
2024-01-24T09:12:15.455Z,96813.97
2024-01-24T09:15:01.711Z,96813.41
2024-01-24T09:17:49.372Z,96816.22
2024-01-24T09:20:38.854Z,96812.78
2024-01-24T09:23:24.704Z,96808.66
2024-01-24T09:26:18.256Z,96806.84
2024-01-24T09:29:04.266Z,96806.56
2024-01-24T09:31:50.320Z,96796.56
2024-01-24T09:34:36.475Z,96794.00
2024-01-24T09:37:22.755Z,96793.91
2024-01-24T09:40:10.940Z,96788.97
2024-01-24T09:43:02.053Z,96786.91
2024-01-24T09:45:50.523Z,96769.22
2024-01-24T09:48:36.830Z,96772.84
2024-01-24T09:51:23.106Z,96770.25
2024-01-24T09:54:09.725Z,96779.47
2024-01-24T09:56:59.377Z,96773.34
2024-01-24T09:59:45.561Z,96765.81
2024-01-24T10:02:33.742Z,96768.56
2024-01-24T10:05:21.822Z,96763.22
2024-01-24T10:08:11.280Z,96756.22
2024-01-24T10:10:57.301Z,96739.78
2024-01-24T10:13:44.357Z,96733.06
2024-01-24T10:16:30.305Z,96731.44
2024-01-24T10:19:16.604Z,96729.28
2024-01-24T10:22:07.213Z,96727.91
2024-01-24T10:24:56.153Z,96720.09
2024-01-24T10:27:43.068Z,96702.50
2024-01-24T10:30:33.543Z,96700.59
2024-01-24T10:33:20.166Z,96698.13
2024-01-24T10:36:14.545Z,96677.28
2024-01-24T10:39:11.016Z,96675.63
2024-01-24T10:41:59.428Z,96666.13
2024-01-24T10:44:46.076Z,96649.06
2024-01-24T10:47:32.615Z,96664.16
2024-01-24T10:50:19.290Z,96647.28
2024-01-24T10:53:05.319Z,96644.81
2024-01-24T10:55:52.490Z,96637.44
2024-01-24T10:58:41.824Z,96652.97
2024-01-24T11:01:28.230Z,96644.16
2024-01-24T11:04:20.594Z,96652.16
2024-01-24T11:07:11.532Z,96632.00
2024-01-24T11:10:22.603Z,96630.28
2024-01-24T11:13:14.895Z,96630.06
2024-01-24T11:21:01.397Z,96620.84
2024-01-24T11:23:48.323Z,96601.25
2024-01-24T11:26:34.527Z,96599.66
2024-01-24T11:29:20.931Z,96604.66
2024-01-24T11:32:11.581Z,96594.47
2024-01-24T11:35:28.817Z,96587.03
2024-01-24T11:38:25.586Z,96573.38
2024-01-24T11:41:27.504Z,96566.59
2024-01-24T11:49:11.109Z,96541.06
2024-01-24T12:06:51.951Z,96515.53
2024-01-24T12:09:37.785Z,96507.44
2024-01-24T12:12:24.795Z,96480.28
2024-01-24T12:15:47.066Z,96489.41
2024-01-24T12:18:33.699Z,96485.88
2024-01-24T12:21:20.328Z,96474.09
2024-01-24T12:24:07.083Z,96479.22
2024-01-24T12:26:57.783Z,96485.88
2024-01-24T12:29:45.545Z,96487.50
2024-01-24T12:33:17.628Z,96504.41
2024-01-24T12:36:07.724Z,96499.34
2024-01-24T12:38:56.591Z,96490.03
2024-01-24T12:42:14.446Z,96490.75
2024-01-24T12:45:00.615Z,96499.06
2024-01-24T12:47:46.609Z,96477.38
2024-01-24T12:50:34.161Z,96474.09
2024-01-24T12:53:21.690Z,96472.84
2024-01-24T12:56:10.881Z,96455.50
2024-01-24T12:58:58.206Z,96474.63
2024-01-24T13:01:44.350Z,96462.75
2024-01-24T13:04:30.463Z,96451.31
2024-01-24T13:07:16.671Z,96456.03
2024-01-24T13:10:07.041Z,96461.38
2024-01-24T13:12:54.097Z,96444.63
2024-01-24T13:15:41.189Z,96468.63
2024-01-24T13:43:22.630Z,96429.09
2024-01-24T13:46:08.792Z,96423.78
2024-01-24T13:48:54.989Z,96431.31
2024-01-24T13:51:43.391Z,96422.47
2024-01-24T13:54:31.031Z,96437.94
2024-01-24T13:57:17.191Z,96445.56
2024-01-24T14:00:04.200Z,96459.19
2024-01-24T14:02:51.968Z,96439.88
2024-01-24T14:05:40.122Z,96447.03
2024-01-24T14:08:27.091Z,96443.41
2024-01-24T14:11:15.323Z,96436.50
2024-01-24T14:14:01.725Z,96434.44
2024-01-24T14:16:49.039Z,96434.00
2024-01-24T14:19:35.041Z,96421.91
2024-01-24T14:22:21.472Z,96394.16
2024-01-24T14:25:09.242Z,96382.47
2024-01-24T14:27:55.681Z,96380.88
2024-01-24T14:30:41.468Z,96373.38
2024-01-24T14:33:34.316Z,96383.25
2024-01-24T14:36:32.934Z,96397.47
2024-01-24T14:39:19.275Z,96395.88
2024-01-24T14:42:08.336Z,96404.06
2024-01-24T14:44:55.433Z,96403.00
2024-01-24T14:47:41.590Z,96405.56
2024-01-24T14:50:29.455Z,96403.13
2024-01-24T14:53:17.590Z,96405.63
2024-01-24T14:56:03.579Z,96410.28
2024-01-24T14:58:49.855Z,96401.75
2024-01-24T15:01:36.259Z,96405.53
2024-01-24T15:04:22.840Z,96386.00
2024-01-24T15:07:09.257Z,96395.47
2024-01-24T15:09:55.836Z,96377.19
2024-01-24T15:12:41.953Z,96373.50
2024-01-24T15:15:28.280Z,96375.66
2024-01-24T15:18:14.554Z,96366.00
2024-01-24T15:21:07.981Z,96360.09
2024-01-24T15:23:58.866Z,96348.03
2024-01-24T15:26:46.271Z,96349.97
2024-01-24T15:29:32.548Z,96350.03
2024-01-24T15:32:18.888Z,96364.63
2024-01-24T15:35:05.954Z,96352.81
2024-01-24T15:37:53.528Z,96354.44
2024-01-24T15:40:40.125Z,96369.31
2024-01-24T15:43:27.306Z,96360.47
2024-01-24T15:46:13.802Z,96374.47
2024-01-24T15:49:00.230Z,96364.25
2024-01-24T15:51:46.651Z,96361.00
2024-01-24T15:54:32.958Z,96363.19
2024-01-24T15:57:19.065Z,96345.44
2024-01-24T16:00:11.191Z,96356.53
2024-01-24T16:02:57.602Z,96348.22
2024-01-24T16:05:47.378Z,96359.00
2024-01-24T16:08:34.805Z,96376.53
2024-01-24T16:11:20.943Z,96385.50
2024-01-24T16:14:06.805Z,96387.66
2024-01-24T16:16:57.223Z,96388.75
2024-01-24T16:19:43.062Z,96390.69
2024-01-24T16:22:36.178Z,96382.88
2024-01-24T16:25:25.549Z,96378.00
2024-01-24T16:28:16.144Z,96368.34
2024-01-24T16:31:02.606Z,96367.81
2024-01-24T16:33:49.952Z,96385.88
2024-01-24T16:36:36.846Z,96387.25
2024-01-24T16:39:23.039Z,96376.78
2024-01-24T16:42:09.523Z,96372.19
2024-01-24T16:44:55.975Z,96362.53
2024-01-24T16:47:42.420Z,96363.59
2024-01-24T16:50:28.289Z,96360.94
2024-01-24T16:53:14.847Z,96372.78
2024-01-24T16:56:00.993Z,96373.88
2024-01-24T16:58:47.174Z,96386.28
2024-01-24T17:01:33.359Z,96378.19
2024-01-24T17:04:19.901Z,96378.22
2024-01-24T17:07:06.036Z,96380.66
2024-01-24T17:09:52.775Z,96386.56
2024-01-24T17:12:39.766Z,96380.91
2024-01-24T17:15:25.748Z,96369.09
2024-01-24T17:18:12.960Z,96381.50
2024-01-24T17:20:59.278Z,96382.03
2024-01-24T17:23:46.765Z,96376.09
2024-01-24T17:26:32.882Z,96363.69
2024-01-24T17:29:19.621Z,96364.25
2024-01-24T17:32:05.972Z,96354.81
2024-01-24T17:34:51.998Z,96356.69
2024-01-24T17:37:38.231Z,96349.94
2024-01-24T17:40:24.678Z,96335.13
2024-01-24T17:43:10.875Z,96325.97
2024-01-24T17:45:57.480Z,96317.88
2024-01-24T17:48:44.581Z,96335.69
2024-01-24T17:51:34.270Z,96338.38
2024-01-24T17:54:20.355Z,96344.34
2024-01-24T17:57:06.387Z,96358.63
2024-01-24T17:59:52.440Z,96366.16
2024-01-24T18:02:38.711Z,96357.53
2024-01-24T18:05:25.072Z,96358.91
2024-01-24T18:08:11.376Z,96340.06
2024-01-24T18:10:58.582Z,96350.28
2024-01-24T18:13:45.966Z,96322.34
2024-01-24T18:16:37.661Z,96355.44
2024-01-24T18:19:23.700Z,96343.84
2024-01-24T18:22:12.230Z,96342.81
2024-01-24T18:25:22.548Z,96339.03
2024-01-24T18:28:11.278Z,96320.44
2024-01-24T18:30:57.124Z,96320.97
2024-01-24T18:33:43.516Z,96304.03
2024-01-24T18:36:29.567Z,96302.44
2024-01-24T18:39:15.556Z,96297.34
2024-01-24T18:42:02.101Z,96283.34
2024-01-24T18:44:48.493Z,96284.69
2024-01-24T18:47:34.739Z,96291.13
2024-01-24T18:50:21.375Z,96296.53
2024-01-24T18:53:09.038Z,96289.53
2024-01-24T18:55:55.750Z,96271.25
2024-01-24T18:58:42.300Z,96268.03
2024-01-24T19:01:28.829Z,96268.03
2024-01-24T19:04:16.732Z,96262.66
2024-01-24T19:07:03.367Z,96274.78
2024-01-24T19:09:50.003Z,96276.66
2024-01-24T19:12:40.409Z,96298.16
2024-01-24T19:15:28.380Z,96315.41
2024-01-24T19:18:17.559Z,96311.06
2024-01-24T19:21:06.165Z,96292.78
2024-01-24T19:23:53.422Z,96301.94
2024-01-24T19:26:43.995Z,96297.63
2024-01-24T19:29:29.970Z,96283.66
2024-01-24T19:32:16.100Z,96277.72
2024-01-24T19:35:04.917Z,96277.19
2024-01-24T19:37:51.061Z,96263.19
2024-01-24T19:40:38.871Z,96262.66
2024-01-24T19:43:25.029Z,96256.22
2024-01-24T19:46:12.296Z,96242.75
2024-01-24T19:48:58.690Z,96233.09
2024-01-24T19:51:44.775Z,96233.88
2024-01-24T19:54:30.821Z,96234.16
2024-01-24T19:57:16.993Z,96244.91
2024-01-24T20:00:03.090Z,96243.00
2024-01-24T20:02:51.129Z,96234.97
2024-01-24T20:05:38.225Z,96232.25
2024-01-24T20:08:24.595Z,96233.38
2024-01-24T20:11:10.838Z,96226.09
2024-01-24T20:13:56.662Z,96209.16
2024-01-24T20:16:44.281Z,96191.63
2024-01-24T20:19:30.506Z,96187.09
2024-01-24T20:22:17.082Z,96200.28
2024-01-24T20:25:03.254Z,96180.91
2024-01-24T20:27:49.889Z,96197.00
2024-01-24T20:30:46.135Z,96205.09
2024-01-24T20:33:41.120Z,96197.56
2024-01-24T20:36:27.623Z,96197.56
2024-01-24T20:39:21.587Z,96207.25
2024-01-24T20:42:11.216Z,96199.16
2024-01-24T20:44:59.934Z,96201.84
2024-01-24T20:47:46.196Z,96190.28
2024-01-24T20:50:34.373Z,96188.16
2024-01-24T20:53:20.486Z,96186.81
2024-01-24T20:56:06.765Z,96179.00
2024-01-24T20:58:53.780Z,96163.97
2024-01-24T21:01:40.244Z,96177.66
2024-01-24T21:04:26.585Z,96171.22
2024-01-24T21:07:13.216Z,96191.09
2024-01-24T21:09:59.148Z,96194.88
2024-01-24T21:12:45.404Z,96190.28
2024-01-24T21:15:31.656Z,96185.16
2024-01-24T21:18:17.815Z,96181.16
2024-01-24T21:21:04.399Z,96188.97
2024-01-24T21:23:51.591Z,96194.34
2024-01-24T21:26:48.557Z,96197.53
2024-01-24T21:29:34.521Z,96189.47
2024-01-24T21:32:20.869Z,96197.53
2024-01-24T21:35:07.963Z,96191.91
2024-01-24T21:37:55.384Z,96190.00
2024-01-24T21:40:41.550Z,96180.84
2024-01-24T21:43:27.694Z,96187.28
2024-01-24T21:46:13.946Z,96189.97
2024-01-24T21:49:00.305Z,96189.47
2024-01-24T21:51:47.457Z,96181.91
2024-01-24T21:54:33.737Z,96183.53
2024-01-24T21:57:20.072Z,96193.72
2024-01-24T22:00:07.699Z,96183.50
2024-01-24T22:02:53.838Z,96170.09
2024-01-24T22:05:39.810Z,96175.72
2024-01-24T22:08:25.953Z,96177.06
2024-01-24T22:11:13.969Z,96165.25
2024-01-24T22:14:01.297Z,96173.84
2024-01-24T22:16:48.213Z,96176.78
2024-01-24T22:19:36.124Z,96178.94
2024-01-24T22:22:22.652Z,96185.09
2024-01-24T22:25:11.333Z,96179.19
2024-01-24T22:27:58.932Z,96185.63
2024-01-24T22:30:50.074Z,96194.50
2024-01-24T22:33:37.426Z,96197.47
2024-01-24T22:36:29.018Z,96193.69
2024-01-24T22:39:15.086Z,96191.81
2024-01-24T22:42:01.329Z,96187.75
2024-01-24T22:44:48.684Z,96184.78
2024-01-24T22:47:34.923Z,96178.06
2024-01-24T22:50:21.804Z,96197.41
2024-01-24T22:53:07.878Z,96194.69
2024-01-24T22:56:14.103Z,96200.56
2024-01-24T22:59:00.233Z,96197.34
2024-01-24T23:01:46.664Z,96189.53
2024-01-24T23:04:32.986Z,96198.94
2024-01-24T23:07:19.094Z,96198.41
2024-01-24T23:10:05.928Z,96181.72
2024-01-24T23:12:54.723Z,96192.72
2024-01-24T23:15:40.686Z,96195.38
2024-01-24T23:18:28.077Z,96197.75
2024-01-24T23:21:15.514Z,96190.00
2024-01-24T23:24:07.185Z,96179.75
2024-01-24T23:26:53.307Z,96183.28
2024-01-24T23:29:39.499Z,96173.09
2024-01-24T23:32:26.875Z,96154.84
2024-01-24T23:35:13.049Z,96146.78
2024-01-24T23:37:59.148Z,96152.97
2024-01-24T23:40:45.422Z,96174.47
2024-01-24T23:43:31.569Z,96179.00
2024-01-24T23:46:18.253Z,96153.22
2024-01-24T23:49:04.867Z,96167.22
2024-01-24T23:51:52.596Z,96173.91
2024-01-24T23:54:39.076Z,96158.31
2024-01-24T23:57:26.182Z,96158.06
